sensor_id;sensor_type;location;lat;lon;timestamp;P1;durP1;ratioP1;P2;durP2;ratioP2
33150;SDS011;19508;42.578;23.416;2023-01-06T00:01:06;15.07;;;7.53;;
33150;SDS011;19508;42.578;23.416;2023-01-06T00:03:33;12.98;;;6.95;;
33150;SDS011;19508;42.578;23.416;2023-01-06T00:05:59;18.20;;;6.63;;
33150;SDS011;19508;42.578;23.416;2023-01-06T00:08:26;15.43;;;6.43;;
33150;SDS011;19508;42.578;23.416;2023-01-06T00:10:52;16.52;;;6.95;;
33150;SDS011;19508;42.578;23.416;2023-01-06T00:13:18;13.75;;;6.97;;
33150;SDS011;19508;42.578;23.416;2023-01-06T00:15:43;14.20;;;7.10;;
33150;SDS011;19508;42.578;23.416;2023-01-06T00:18:08;15.18;;;7.15;;
33150;SDS011;19508;42.578;23.416;2023-01-06T00:20:34;13.15;;;6.40;;
33150;SDS011;19508;42.578;23.416;2023-01-06T00:22:59;16.95;;;7.50;;
33150;SDS011;19508;42.578;23.416;2023-01-06T00:25:24;20.08;;;7.70;;
33150;SDS011;19508;42.578;23.416;2023-01-06T00:27:50;17.85;;;8.30;;
33150;SDS011;19508;42.578;23.416;2023-01-06T00:30:15;15.68;;;7.68;;
33150;SDS011;19508;42.578;23.416;2023-01-06T00:32:41;14.93;;;7.53;;
33150;SDS011;19508;42.578;23.416;2023-01-06T00:35:06;16.90;;;8.52;;
33150;SDS011;19508;42.578;23.416;2023-01-06T00:37:32;20.23;;;7.25;;
33150;SDS011;19508;42.578;23.416;2023-01-06T00:39:57;17.15;;;8.07;;
33150;SDS011;19508;42.578;23.416;2023-01-06T00:42:23;18.20;;;8.93;;
33150;SDS011;19508;42.578;23.416;2023-01-06T00:44:49;18.48;;;7.68;;
33150;SDS011;19508;42.578;23.416;2023-01-06T00:47:15;18.67;;;9.00;;
33150;SDS011;19508;42.578;23.416;2023-01-06T00:49:40;45.33;;;17.08;;
33150;SDS011;19508;42.578;23.416;2023-01-06T00:52:06;30.10;;;12.20;;
33150;SDS011;19508;42.578;23.416;2023-01-06T00:54:32;18.30;;;7.85;;
33150;SDS011;19508;42.578;23.416;2023-01-06T00:56:57;14.38;;;7.28;;
33150;SDS011;19508;42.578;23.416;2023-01-06T00:59:23;13.30;;;6.97;;
33150;SDS011;19508;42.578;23.416;2023-01-06T01:01:50;15.30;;;7.93;;
33150;SDS011;19508;42.578;23.416;2023-01-06T01:04:18;19.23;;;6.53;;
33150;SDS011;19508;42.578;23.416;2023-01-06T01:06:45;13.15;;;6.90;;
33150;SDS011;19508;42.578;23.416;2023-01-06T01:09:15;13.27;;;6.90;;
33150;SDS011;19508;42.578;23.416;2023-01-06T01:11:46;35.83;;;11.68;;
33150;SDS011;19508;42.578;23.416;2023-01-06T01:14:30;16.88;;;7.90;;
33150;SDS011;19508;42.578;23.416;2023-01-06T01:16:56;14.77;;;7.20;;
33150;SDS011;19508;42.578;23.416;2023-01-06T01:19:21;10.98;;;6.05;;
33150;SDS011;19508;42.578;23.416;2023-01-06T01:21:47;11.70;;;5.53;;
33150;SDS011;19508;42.578;23.416;2023-01-06T01:24:12;9.93;;;5.05;;
33150;SDS011;19508;42.578;23.416;2023-01-06T01:26:38;10.98;;;4.80;;
33150;SDS011;19508;42.578;23.416;2023-01-06T01:29:03;11.30;;;4.93;;
33150;SDS011;19508;42.578;23.416;2023-01-06T01:31:29;11.73;;;5.35;;
33150;SDS011;19508;42.578;23.416;2023-01-06T01:33:55;9.32;;;4.80;;
33150;SDS011;19508;42.578;23.416;2023-01-06T01:36:20;16.08;;;5.57;;
33150;SDS011;19508;42.578;23.416;2023-01-06T01:38:46;12.50;;;5.15;;
33150;SDS011;19508;42.578;23.416;2023-01-06T01:41:15;9.35;;;5.10;;
33150;SDS011;19508;42.578;23.416;2023-01-06T01:43:45;10.50;;;3.92;;
33150;SDS011;19508;42.578;23.416;2023-01-06T01:46:16;11.55;;;4.72;;
33150;SDS011;19508;42.578;23.416;2023-01-06T01:48:55;10.20;;;5.18;;
33150;SDS011;19508;42.578;23.416;2023-01-06T01:51:24;17.20;;;5.20;;
33150;SDS011;19508;42.578;23.416;2023-01-06T01:53:54;6.47;;;3.25;;
33150;SDS011;19508;42.578;23.416;2023-01-06T01:56:24;8.80;;;3.47;;
33150;SDS011;19508;42.578;23.416;2023-01-06T01:58:54;5.63;;;3.28;;
33150;SDS011;19508;42.578;23.416;2023-01-06T02:01:24;7.75;;;4.22;;
33150;SDS011;19508;42.578;23.416;2023-01-06T02:03:49;9.30;;;4.10;;
33150;SDS011;19508;42.578;23.416;2023-01-06T02:06:17;8.20;;;4.05;;
33150;SDS011;19508;42.578;23.416;2023-01-06T02:08:48;6.65;;;3.67;;
33150;SDS011;19508;42.578;23.416;2023-01-06T02:11:34;11.80;;;4.68;;
33150;SDS011;19508;42.578;23.416;2023-01-06T02:14:07;9.98;;;3.80;;
33150;SDS011;19508;42.578;23.416;2023-01-06T02:30:06;9.68;;;4.47;;
33150;SDS011;19508;42.578;23.416;2023-01-06T02:33:09;8.50;;;4.50;;
33150;SDS011;19508;42.578;23.416;2023-01-06T02:35:57;6.28;;;3.90;;
33150;SDS011;19508;42.578;23.416;2023-01-06T02:41:46;4.75;;;1.80;;
33150;SDS011;19508;42.578;23.416;2023-01-06T02:44:26;4.88;;;2.47;;
33150;SDS011;19508;42.578;23.416;2023-01-06T02:49:45;7.10;;;2.03;;
33150;SDS011;19508;42.578;23.416;2023-01-06T02:54:45;6.65;;;2.45;;
33150;SDS011;19508;42.578;23.416;2023-01-06T03:00:03;8.85;;;3.10;;
33150;SDS011;19508;42.578;23.416;2023-01-06T03:02:31;3.03;;;1.77;;
33150;SDS011;19508;42.578;23.416;2023-01-06T03:04:59;6.75;;;3.67;;
33150;SDS011;19508;42.578;23.416;2023-01-06T03:07:27;7.00;;;2.60;;
33150;SDS011;19508;42.578;23.416;2023-01-06T03:09:55;7.63;;;2.88;;
33150;SDS011;19508;42.578;23.416;2023-01-06T03:12:29;5.75;;;2.42;;
33150;SDS011;19508;42.578;23.416;2023-01-06T03:15:00;5.03;;;1.73;;
33150;SDS011;19508;42.578;23.416;2023-01-06T03:17:26;5.30;;;1.63;;
33150;SDS011;19508;42.578;23.416;2023-01-06T03:19:51;2.88;;;1.83;;
33150;SDS011;19508;42.578;23.416;2023-01-06T03:22:17;5.80;;;1.63;;
33150;SDS011;19508;42.578;23.416;2023-01-06T03:24:44;4.18;;;1.80;;
33150;SDS011;19508;42.578;23.416;2023-01-06T03:27:10;3.75;;;2.35;;
33150;SDS011;19508;42.578;23.416;2023-01-06T03:29:36;5.22;;;2.25;;
33150;SDS011;19508;42.578;23.416;2023-01-06T03:32:15;4.20;;;2.28;;
33150;SDS011;19508;42.578;23.416;2023-01-06T03:37:25;5.20;;;2.17;;
33150;SDS011;19508;42.578;23.416;2023-01-06T03:53:49;3.55;;;1.90;;
33150;SDS011;19508;42.578;23.416;2023-01-06T03:56:17;6.30;;;2.30;;
33150;SDS011;19508;42.578;23.416;2023-01-06T03:58:49;5.63;;;2.00;;
33150;SDS011;19508;42.578;23.416;2023-01-06T04:01:17;5.30;;;2.75;;
33150;SDS011;19508;42.578;23.416;2023-01-06T04:03:45;6.75;;;2.78;;
33150;SDS011;19508;42.578;23.416;2023-01-06T04:06:12;4.95;;;2.20;;
33150;SDS011;19508;42.578;23.416;2023-01-06T04:08:37;4.68;;;2.08;;
33150;SDS011;19508;42.578;23.416;2023-01-06T04:11:03;6.20;;;2.92;;
33150;SDS011;19508;42.578;23.416;2023-01-06T04:13:28;5.60;;;2.70;;
33150;SDS011;19508;42.578;23.416;2023-01-06T04:15:53;7.90;;;2.05;;
33150;SDS011;19508;42.578;23.416;2023-01-06T04:18:19;6.47;;;2.47;;
33150;SDS011;19508;42.578;23.416;2023-01-06T04:20:44;2.72;;;1.60;;
33150;SDS011;19508;42.578;23.416;2023-01-06T04:23:11;4.93;;;1.92;;
33150;SDS011;19508;42.578;23.416;2023-01-06T04:25:36;4.25;;;2.50;;
33150;SDS011;19508;42.578;23.416;2023-01-06T04:28:02;3.85;;;2.28;;
33150;SDS011;19508;42.578;23.416;2023-01-06T04:30:27;8.68;;;2.28;;
33150;SDS011;19508;42.578;23.416;2023-01-06T04:32:53;2.97;;;1.58;;
33150;SDS011;19508;42.578;23.416;2023-01-06T04:35:18;3.13;;;2.22;;
33150;SDS011;19508;42.578;23.416;2023-01-06T04:37:43;5.70;;;2.47;;
33150;SDS011;19508;42.578;23.416;2023-01-06T04:40:09;5.07;;;2.20;;
33150;SDS011;19508;42.578;23.416;2023-01-06T04:42:35;3.78;;;1.95;;
33150;SDS011;19508;42.578;23.416;2023-01-06T04:45:19;5.75;;;1.67;;
33150;SDS011;19508;42.578;23.416;2023-01-06T04:47:45;4.43;;;1.65;;
33150;SDS011;19508;42.578;23.416;2023-01-06T04:50:10;4.35;;;1.60;;
33150;SDS011;19508;42.578;23.416;2023-01-06T04:52:36;6.18;;;2.15;;
33150;SDS011;19508;42.578;23.416;2023-01-06T04:55:01;3.38;;;1.95;;
33150;SDS011;19508;42.578;23.416;2023-01-06T04:57:27;3.40;;;1.83;;
33150;SDS011;19508;42.578;23.416;2023-01-06T04:59:53;8.20;;;2.42;;
33150;SDS011;19508;42.578;23.416;2023-01-06T05:02:18;4.82;;;1.60;;
33150;SDS011;19508;42.578;23.416;2023-01-06T05:04:44;3.20;;;2.25;;
33150;SDS011;19508;42.578;23.416;2023-01-06T05:07:09;4.97;;;2.38;;
33150;SDS011;19508;42.578;23.416;2023-01-06T05:09:34;5.40;;;1.98;;
33150;SDS011;19508;42.578;23.416;2023-01-06T05:12:00;3.30;;;2.10;;
33150;SDS011;19508;42.578;23.416;2023-01-06T05:14:25;4.10;;;2.00;;
33150;SDS011;19508;42.578;23.416;2023-01-06T05:16:50;2.63;;;1.52;;
33150;SDS011;19508;42.578;23.416;2023-01-06T05:19:16;10.05;;;6.32;;
33150;SDS011;19508;42.578;23.416;2023-01-06T05:21:41;4.30;;;2.05;;
33150;SDS011;19508;42.578;23.416;2023-01-06T05:24:08;3.95;;;1.83;;
33150;SDS011;19508;42.578;23.416;2023-01-06T05:26:34;4.13;;;1.92;;
33150;SDS011;19508;42.578;23.416;2023-01-06T05:28:59;5.10;;;2.35;;
33150;SDS011;19508;42.578;23.416;2023-01-06T05:31:24;1.80;;;1.30;;
33150;SDS011;19508;42.578;23.416;2023-01-06T05:33:50;3.50;;;1.67;;
33150;SDS011;19508;42.578;23.416;2023-01-06T05:36:16;8.80;;;2.20;;
33150;SDS011;19508;42.578;23.416;2023-01-06T05:38:42;1.90;;;1.63;;
33150;SDS011;19508;42.578;23.416;2023-01-06T05:41:08;5.47;;;2.03;;
33150;SDS011;19508;42.578;23.416;2023-01-06T05:43:35;4.00;;;1.70;;
33150;SDS011;19508;42.578;23.416;2023-01-06T05:46:08;5.20;;;1.65;;
33150;SDS011;19508;42.578;23.416;2023-01-06T05:48:34;3.25;;;1.77;;
33150;SDS011;19508;42.578;23.416;2023-01-06T05:51:00;2.75;;;1.75;;
33150;SDS011;19508;42.578;23.416;2023-01-06T05:53:30;3.33;;;1.73;;
33150;SDS011;19508;42.578;23.416;2023-01-06T05:56:03;5.97;;;2.53;;
33150;SDS011;19508;42.578;23.416;2023-01-06T05:58:34;5.97;;;2.60;;
33150;SDS011;19508;42.578;23.416;2023-01-06T06:01:00;7.25;;;2.47;;
33150;SDS011;19508;42.578;23.416;2023-01-06T06:03:27;12.20;;;6.03;;
33150;SDS011;19508;42.578;23.416;2023-01-06T06:05:52;5.53;;;2.75;;
33150;SDS011;19508;42.578;23.416;2023-01-06T06:08:18;3.22;;;1.60;;
33150;SDS011;19508;42.578;23.416;2023-01-06T06:10:43;3.78;;;1.63;;
33150;SDS011;19508;42.578;23.416;2023-01-06T06:13:09;2.72;;;1.10;;
33150;SDS011;19508;42.578;23.416;2023-01-06T06:15:34;6.53;;;1.33;;
33150;SDS011;19508;42.578;23.416;2023-01-06T06:18:00;5.28;;;1.80;;
33150;SDS011;19508;42.578;23.416;2023-01-06T06:20:27;49.25;;;14.43;;
33150;SDS011;19508;42.578;23.416;2023-01-06T06:22:52;14.00;;;4.28;;
33150;SDS011;19508;42.578;23.416;2023-01-06T06:25:18;6.60;;;1.50;;
33150;SDS011;19508;42.578;23.416;2023-01-06T06:27:43;1.80;;;1.35;;
33150;SDS011;19508;42.578;23.416;2023-01-06T06:30:09;2.85;;;1.40;;
33150;SDS011;19508;42.578;23.416;2023-01-06T06:32:34;2.67;;;1.27;;
33150;SDS011;19508;42.578;23.416;2023-01-06T06:35:00;1.98;;;1.15;;
33150;SDS011;19508;42.578;23.416;2023-01-06T06:37:25;1.92;;;0.75;;
33150;SDS011;19508;42.578;23.416;2023-01-06T06:39:50;4.78;;;2.53;;
33150;SDS011;19508;42.578;23.416;2023-01-06T06:42:16;2.88;;;2.10;;
33150;SDS011;19508;42.578;23.416;2023-01-06T06:44:41;3.55;;;1.40;;
33150;SDS011;19508;42.578;23.416;2023-01-06T06:47:07;2.65;;;1.75;;
33150;SDS011;19508;42.578;23.416;2023-01-06T06:49:32;3.00;;;1.60;;
33150;SDS011;19508;42.578;23.416;2023-01-06T06:51:57;2.08;;;1.42;;
33150;SDS011;19508;42.578;23.416;2023-01-06T06:54:23;1.20;;;0.90;;
33150;SDS011;19508;42.578;23.416;2023-01-06T06:56:48;1.20;;;1.08;;
33150;SDS011;19508;42.578;23.416;2023-01-06T06:59:13;1.63;;;1.20;;
33150;SDS011;19508;42.578;23.416;2023-01-06T07:01:39;1.25;;;0.95;;
33150;SDS011;19508;42.578;23.416;2023-01-06T07:04:04;1.35;;;1.00;;
33150;SDS011;19508;42.578;23.416;2023-01-06T07:06:30;3.25;;;1.60;;
33150;SDS011;19508;42.578;23.416;2023-01-06T07:08:55;1.80;;;1.02;;
33150;SDS011;19508;42.578;23.416;2023-01-06T07:11:21;2.20;;;1.30;;
33150;SDS011;19508;42.578;23.416;2023-01-06T07:13:46;3.63;;;1.30;;
33150;SDS011;19508;42.578;23.416;2023-01-06T07:16:12;1.85;;;1.23;;
33150;SDS011;19508;42.578;23.416;2023-01-06T07:18:37;3.80;;;1.40;;
33150;SDS011;19508;42.578;23.416;2023-01-06T07:21:03;4.13;;;1.15;;
33150;SDS011;19508;42.578;23.416;2023-01-06T07:23:30;1.30;;;0.70;;
33150;SDS011;19508;42.578;23.416;2023-01-06T07:25:57;1.95;;;1.20;;
33150;SDS011;19508;42.578;23.416;2023-01-06T07:28:23;1.13;;;0.98;;
33150;SDS011;19508;42.578;23.416;2023-01-06T07:30:50;5.72;;;2.28;;
33150;SDS011;19508;42.578;23.416;2023-01-06T07:33:16;2.78;;;1.40;;
33150;SDS011;19508;42.578;23.416;2023-01-06T07:35:42;1.67;;;0.70;;
33150;SDS011;19508;42.578;23.416;2023-01-06T07:38:08;3.40;;;1.40;;
33150;SDS011;19508;42.578;23.416;2023-01-06T07:40:34;2.80;;;1.52;;
33150;SDS011;19508;42.578;23.416;2023-01-06T07:43:07;2.45;;;1.20;;
33150;SDS011;19508;42.578;23.416;2023-01-06T07:45:34;2.15;;;1.13;;
33150;SDS011;19508;42.578;23.416;2023-01-06T07:48:00;1.63;;;1.30;;
33150;SDS011;19508;42.578;23.416;2023-01-06T07:50:25;2.28;;;1.30;;
33150;SDS011;19508;42.578;23.416;2023-01-06T07:52:52;1.65;;;1.35;;
33150;SDS011;19508;42.578;23.416;2023-01-06T07:55:17;2.00;;;1.20;;
33150;SDS011;19508;42.578;23.416;2023-01-06T07:57:43;2.70;;;1.23;;
33150;SDS011;19508;42.578;23.416;2023-01-06T08:00:08;4.88;;;1.50;;
33150;SDS011;19508;42.578;23.416;2023-01-06T08:02:34;1.70;;;1.15;;
33150;SDS011;19508;42.578;23.416;2023-01-06T08:04:59;1.90;;;1.40;;
33150;SDS011;19508;42.578;23.416;2023-01-06T08:07:25;3.85;;;1.40;;
33150;SDS011;19508;42.578;23.416;2023-01-06T08:09:50;2.00;;;1.20;;
33150;SDS011;19508;42.578;23.416;2023-01-06T08:12:15;2.72;;;1.25;;
33150;SDS011;19508;42.578;23.416;2023-01-06T08:14:41;1.92;;;1.10;;
33150;SDS011;19508;42.578;23.416;2023-01-06T08:17:07;1.60;;;1.20;;
33150;SDS011;19508;42.578;23.416;2023-01-06T08:19:32;5.18;;;1.38;;
33150;SDS011;19508;42.578;23.416;2023-01-06T08:21:58;2.28;;;1.50;;
33150;SDS011;19508;42.578;23.416;2023-01-06T08:24:23;2.60;;;0.93;;
33150;SDS011;19508;42.578;23.416;2023-01-06T08:26:48;3.47;;;1.08;;
33150;SDS011;19508;42.578;23.416;2023-01-06T08:29:14;2.40;;;1.13;;
33150;SDS011;19508;42.578;23.416;2023-01-06T08:31:39;1.83;;;0.93;;
33150;SDS011;19508;42.578;23.416;2023-01-06T08:34:05;1.90;;;0.98;;
33150;SDS011;19508;42.578;23.416;2023-01-06T08:36:30;5.50;;;1.33;;
33150;SDS011;19508;42.578;23.416;2023-01-06T08:38:56;2.88;;;1.10;;
33150;SDS011;19508;42.578;23.416;2023-01-06T08:41:21;1.80;;;0.80;;
33150;SDS011;19508;42.578;23.416;2023-01-06T08:43:47;2.40;;;0.80;;
33150;SDS011;19508;42.578;23.416;2023-01-06T08:46:13;7.88;;;1.50;;
33150;SDS011;19508;42.578;23.416;2023-01-06T08:48:41;2.78;;;1.25;;
33150;SDS011;19508;42.578;23.416;2023-01-06T08:51:09;1.50;;;1.00;;
33150;SDS011;19508;42.578;23.416;2023-01-06T08:53:36;1.48;;;1.00;;
33150;SDS011;19508;42.578;23.416;2023-01-06T08:56:02;3.38;;;1.02;;
33150;SDS011;19508;42.578;23.416;2023-01-06T08:58:28;1.35;;;0.90;;
33150;SDS011;19508;42.578;23.416;2023-01-06T09:00:53;3.17;;;1.05;;
33150;SDS011;19508;42.578;23.416;2023-01-06T09:03:19;1.35;;;0.85;;
33150;SDS011;19508;42.578;23.416;2023-01-06T09:05:50;1.95;;;1.02;;
33150;SDS011;19508;42.578;23.416;2023-01-06T09:08:17;1.30;;;0.88;;
33150;SDS011;19508;42.578;23.416;2023-01-06T09:10:42;3.45;;;1.15;;
33150;SDS011;19508;42.578;23.416;2023-01-06T09:13:08;1.42;;;0.68;;
33150;SDS011;19508;42.578;23.416;2023-01-06T09:15:33;0.98;;;0.88;;
33150;SDS011;19508;42.578;23.416;2023-01-06T09:17:58;6.50;;;0.98;;
33150;SDS011;19508;42.578;23.416;2023-01-06T09:20:24;2.17;;;1.02;;
33150;SDS011;19508;42.578;23.416;2023-01-06T09:22:49;1.45;;;0.80;;
33150;SDS011;19508;42.578;23.416;2023-01-06T09:25:15;2.15;;;0.70;;
33150;SDS011;19508;42.578;23.416;2023-01-06T09:27:40;3.63;;;1.05;;
33150;SDS011;19508;42.578;23.416;2023-01-06T09:30:06;2.50;;;1.00;;
33150;SDS011;19508;42.578;23.416;2023-01-06T09:32:32;1.13;;;0.90;;
33150;SDS011;19508;42.578;23.416;2023-01-06T09:34:57;6.43;;;1.25;;
33150;SDS011;19508;42.578;23.416;2023-01-06T09:37:23;4.28;;;1.65;;
33150;SDS011;19508;42.578;23.416;2023-01-06T09:39:48;5.95;;;1.77;;
33150;SDS011;19508;42.578;23.416;2023-01-06T09:47:32;4.68;;;0.90;;
33150;SDS011;19508;42.578;23.416;2023-01-06T09:50:06;2.08;;;0.98;;
33150;SDS011;19508;42.578;23.416;2023-01-06T09:52:39;1.42;;;1.00;;
33150;SDS011;19508;42.578;23.416;2023-01-06T09:55:15;2.08;;;0.98;;
33150;SDS011;19508;42.578;23.416;2023-01-06T09:57:49;1.85;;;0.93;;
33150;SDS011;19508;42.578;23.416;2023-01-06T10:03:06;1.88;;;1.20;;
33150;SDS011;19508;42.578;23.416;2023-01-06T10:05:47;4.72;;;1.17;;
33150;SDS011;19508;42.578;23.416;2023-01-06T10:11:08;3.78;;;1.30;;
33150;SDS011;19508;42.578;23.416;2023-01-06T10:27:52;5.20;;;1.10;;
33150;SDS011;19508;42.578;23.416;2023-01-06T10:32:55;5.03;;;1.00;;
33150;SDS011;19508;42.578;23.416;2023-01-06T10:35:21;4.50;;;0.70;;
33150;SDS011;19508;42.578;23.416;2023-01-06T10:37:50;9.52;;;0.90;;
33150;SDS011;19508;42.578;23.416;2023-01-06T10:45:19;2.67;;;1.25;;
33150;SDS011;19508;42.578;23.416;2023-01-06T10:47:45;6.93;;;1.02;;
33150;SDS011;19508;42.578;23.416;2023-01-06T10:50:11;1.17;;;0.88;;
33150;SDS011;19508;42.578;23.416;2023-01-06T10:52:38;2.08;;;1.13;;
33150;SDS011;19508;42.578;23.416;2023-01-06T10:55:04;1.73;;;1.05;;
33150;SDS011;19508;42.578;23.416;2023-01-06T10:57:37;4.50;;;1.02;;
33150;SDS011;19508;42.578;23.416;2023-01-06T11:00:06;5.00;;;0.77;;
33150;SDS011;19508;42.578;23.416;2023-01-06T11:02:43;1.45;;;0.85;;
33150;SDS011;19508;42.578;23.416;2023-01-06T11:08:10;1.60;;;1.05;;
33150;SDS011;19508;42.578;23.416;2023-01-06T11:10:41;3.13;;;1.15;;
33150;SDS011;19508;42.578;23.416;2023-01-06T11:13:44;2.00;;;1.33;;
33150;SDS011;19508;42.578;23.416;2023-01-06T11:16:03;2.95;;;1.40;;
33150;SDS011;19508;42.578;23.416;2023-01-06T11:18:32;1.35;;;1.20;;
33150;SDS011;19508;42.578;23.416;2023-01-06T11:23:29;4.93;;;1.20;;
33150;SDS011;19508;42.578;23.416;2023-01-06T11:28:36;6.63;;;1.70;;
33150;SDS011;19508;42.578;23.416;2023-01-06T11:31:02;3.50;;;0.93;;
33150;SDS011;19508;42.578;23.416;2023-01-06T11:33:30;1.95;;;1.58;;
33150;SDS011;19508;42.578;23.416;2023-01-06T11:35:58;2.60;;;1.20;;
33150;SDS011;19508;42.578;23.416;2023-01-06T11:38:31;2.60;;;1.38;;
33150;SDS011;19508;42.578;23.416;2023-01-06T11:41:09;3.90;;;1.38;;
33150;SDS011;19508;42.578;23.416;2023-01-06T11:43:37;5.88;;;1.60;;
33150;SDS011;19508;42.578;23.416;2023-01-06T11:46:07;2.75;;;1.48;;
33150;SDS011;19508;42.578;23.416;2023-01-06T11:51:43;3.45;;;1.20;;
33150;SDS011;19508;42.578;23.416;2023-01-06T11:54:22;5.25;;;1.42;;
33150;SDS011;19508;42.578;23.416;2023-01-06T11:56:56;4.85;;;1.67;;
33150;SDS011;19508;42.578;23.416;2023-01-06T11:59:25;5.05;;;1.60;;
33150;SDS011;19508;42.578;23.416;2023-01-06T12:01:58;2.55;;;1.30;;
33150;SDS011;19508;42.578;23.416;2023-01-06T12:09:48;2.53;;;1.48;;
33150;SDS011;19508;42.578;23.416;2023-01-06T12:12:18;3.25;;;1.48;;
33150;SDS011;19508;42.578;23.416;2023-01-06T12:14:47;3.93;;;1.37;;
33150;SDS011;19508;42.578;23.416;2023-01-06T12:25:20;7.28;;;1.88;;
33150;SDS011;19508;42.578;23.416;2023-01-06T12:28:01;1.60;;;1.23;;
33150;SDS011;19508;42.578;23.416;2023-01-06T12:30:39;2.15;;;1.00;;
33150;SDS011;19508;42.578;23.416;2023-01-06T12:36:10;5.35;;;1.30;;
33150;SDS011;19508;42.578;23.416;2023-01-06T12:41:30;2.10;;;1.02;;
33150;SDS011;19508;42.578;23.416;2023-01-06T12:44:12;2.17;;;1.20;;
33150;SDS011;19508;42.578;23.416;2023-01-06T12:46:58;3.67;;;1.60;;
33150;SDS011;19508;42.578;23.416;2023-01-06T12:54:56;2.22;;;1.20;;
33150;SDS011;19508;42.578;23.416;2023-01-06T12:57:27;4.35;;;1.60;;
33150;SDS011;19508;42.578;23.416;2023-01-06T13:00:36;5.75;;;1.33;;
33150;SDS011;19508;42.578;23.416;2023-01-06T13:19:39;3.10;;;1.50;;
33150;SDS011;19508;42.578;23.416;2023-01-06T13:22:11;2.25;;;1.60;;
33150;SDS011;19508;42.578;23.416;2023-01-06T13:35:53;2.97;;;1.85;;
33150;SDS011;19508;42.578;23.416;2023-01-06T13:38:50;6.38;;;2.47;;
33150;SDS011;19508;42.578;23.416;2023-01-06T13:41:24;9.02;;;2.00;;
33150;SDS011;19508;42.578;23.416;2023-01-06T13:43:53;5.13;;;2.10;;
33150;SDS011;19508;42.578;23.416;2023-01-06T13:46:21;5.38;;;2.05;;
33150;SDS011;19508;42.578;23.416;2023-01-06T13:48:54;6.55;;;2.65;;
33150;SDS011;19508;42.578;23.416;2023-01-06T13:51:25;4.68;;;2.20;;
33150;SDS011;19508;42.578;23.416;2023-01-06T13:54:02;5.60;;;2.28;;
33150;SDS011;19508;42.578;23.416;2023-01-06T13:56:31;8.30;;;3.42;;
33150;SDS011;19508;42.578;23.416;2023-01-06T13:59:18;9.50;;;2.30;;
33150;SDS011;19508;42.578;23.416;2023-01-06T14:01:46;7.43;;;2.33;;
33150;SDS011;19508;42.578;23.416;2023-01-06T14:07:29;3.72;;;1.95;;
33150;SDS011;19508;42.578;23.416;2023-01-06T14:09:56;5.70;;;2.17;;
33150;SDS011;19508;42.578;23.416;2023-01-06T14:12:22;5.43;;;1.98;;
33150;SDS011;19508;42.578;23.416;2023-01-06T14:14:55;4.63;;;1.98;;
33150;SDS011;19508;42.578;23.416;2023-01-06T14:17:27;8.40;;;1.70;;
33150;SDS011;19508;42.578;23.416;2023-01-06T14:19:54;12.48;;;1.92;;
33150;SDS011;19508;42.578;23.416;2023-01-06T14:22:21;6.80;;;1.83;;
33150;SDS011;19508;42.578;23.416;2023-01-06T14:24:57;2.03;;;1.52;;
33150;SDS011;19508;42.578;23.416;2023-01-06T14:35:14;8.15;;;2.30;;
33150;SDS011;19508;42.578;23.416;2023-01-06T14:37:43;4.53;;;2.00;;
33150;SDS011;19508;42.578;23.416;2023-01-06T14:40:23;10.70;;;4.88;;
33150;SDS011;19508;42.578;23.416;2023-01-06T14:42:52;6.82;;;2.50;;
33150;SDS011;19508;42.578;23.416;2023-01-06T14:45:24;9.38;;;3.25;;
33150;SDS011;19508;42.578;23.416;2023-01-06T14:48:08;7.45;;;2.53;;
33150;SDS011;19508;42.578;23.416;2023-01-06T14:50:38;3.00;;;1.75;;
33150;SDS011;19508;42.578;23.416;2023-01-06T14:55:49;4.47;;;2.17;;
33150;SDS011;19508;42.578;23.416;2023-01-06T14:58:25;8.80;;;2.45;;
33150;SDS011;19508;42.578;23.416;2023-01-06T15:00:52;3.05;;;1.98;;
33150;SDS011;19508;42.578;23.416;2023-01-06T15:03:20;11.15;;;2.22;;
33150;SDS011;19508;42.578;23.416;2023-01-06T15:05:46;18.05;;;2.85;;
33150;SDS011;19508;42.578;23.416;2023-01-06T15:10:41;8.02;;;3.35;;
33150;SDS011;19508;42.578;23.416;2023-01-06T15:13:29;5.18;;;1.77;;
33150;SDS011;19508;42.578;23.416;2023-01-06T15:16:03;6.72;;;2.58;;
33150;SDS011;19508;42.578;23.416;2023-01-06T15:18:33;5.47;;;2.85;;
33150;SDS011;19508;42.578;23.416;2023-01-06T15:20:59;8.00;;;2.97;;
33150;SDS011;19508;42.578;23.416;2023-01-06T15:23:26;11.27;;;3.10;;
33150;SDS011;19508;42.578;23.416;2023-01-06T15:25:52;11.55;;;3.72;;
33150;SDS011;19508;42.578;23.416;2023-01-06T15:28:26;9.45;;;3.55;;
33150;SDS011;19508;42.578;23.416;2023-01-06T15:30:53;12.70;;;3.63;;
33150;SDS011;19508;42.578;23.416;2023-01-06T15:33:23;7.82;;;3.33;;
33150;SDS011;19508;42.578;23.416;2023-01-06T15:35:50;9.35;;;3.85;;
33150;SDS011;19508;42.578;23.416;2023-01-06T15:40:56;4.95;;;2.55;;
33150;SDS011;19508;42.578;23.416;2023-01-06T15:43:22;4.97;;;2.60;;
33150;SDS011;19508;42.578;23.416;2023-01-06T15:46:24;7.57;;;2.78;;
33150;SDS011;19508;42.578;23.416;2023-01-06T15:48:43;7.55;;;2.40;;
33150;SDS011;19508;42.578;23.416;2023-01-06T15:51:11;2.75;;;1.60;;
33150;SDS011;19508;42.578;23.416;2023-01-06T15:53:40;4.45;;;2.30;;
33150;SDS011;19508;42.578;23.416;2023-01-06T15:56:07;5.75;;;2.17;;
33150;SDS011;19508;42.578;23.416;2023-01-06T15:58:44;9.68;;;3.40;;
33150;SDS011;19508;42.578;23.416;2023-01-06T16:01:13;8.10;;;2.80;;
33150;SDS011;19508;42.578;23.416;2023-01-06T16:03:45;5.28;;;2.55;;
33150;SDS011;19508;42.578;23.416;2023-01-06T16:08:40;5.63;;;2.70;;
33150;SDS011;19508;42.578;23.416;2023-01-06T16:13:41;5.82;;;2.33;;
33150;SDS011;19508;42.578;23.416;2023-01-06T16:18:48;11.88;;;2.85;;
33150;SDS011;19508;42.578;23.416;2023-01-06T16:21:16;5.28;;;2.35;;
33150;SDS011;19508;42.578;23.416;2023-01-06T16:23:47;8.23;;;3.28;;
33150;SDS011;19508;42.578;23.416;2023-01-06T16:26:16;6.30;;;2.67;;
33150;SDS011;19508;42.578;23.416;2023-01-06T16:28:54;7.22;;;2.63;;
33150;SDS011;19508;42.578;23.416;2023-01-06T16:31:35;9.85;;;3.22;;
33150;SDS011;19508;42.578;23.416;2023-01-06T16:36:46;6.85;;;3.05;;
33150;SDS011;19508;42.578;23.416;2023-01-06T16:39:15;12.80;;;3.00;;
33150;SDS011;19508;42.578;23.416;2023-01-06T16:44:36;16.10;;;5.07;;
33150;SDS011;19508;42.578;23.416;2023-01-06T16:47:04;9.73;;;4.55;;
33150;SDS011;19508;42.578;23.416;2023-01-06T16:49:33;18.50;;;3.60;;
33150;SDS011;19508;42.578;23.416;2023-01-06T16:51:58;20.77;;;7.65;;
33150;SDS011;19508;42.578;23.416;2023-01-06T16:54:24;10.85;;;4.60;;
33150;SDS011;19508;42.578;23.416;2023-01-06T16:56:49;10.60;;;3.80;;
33150;SDS011;19508;42.578;23.416;2023-01-06T16:59:16;7.25;;;3.75;;
33150;SDS011;19508;42.578;23.416;2023-01-06T17:01:43;17.35;;;5.78;;
33150;SDS011;19508;42.578;23.416;2023-01-06T17:04:11;13.73;;;4.60;;
33150;SDS011;19508;42.578;23.416;2023-01-06T17:06:37;20.33;;;9.18;;
33150;SDS011;19508;42.578;23.416;2023-01-06T17:09:36;18.35;;;8.35;;
33150;SDS011;19508;42.578;23.416;2023-01-06T17:11:55;52.25;;;19.02;;
33150;SDS011;19508;42.578;23.416;2023-01-06T17:14:22;13.50;;;6.50;;
33150;SDS011;19508;42.578;23.416;2023-01-06T17:16:48;10.10;;;4.47;;
33150;SDS011;19508;42.578;23.416;2023-01-06T17:19:20;8.15;;;3.75;;
33150;SDS011;19508;42.578;23.416;2023-01-06T17:21:47;10.45;;;4.80;;
33150;SDS011;19508;42.578;23.416;2023-01-06T17:24:18;10.27;;;4.78;;
33150;SDS011;19508;42.578;23.416;2023-01-06T17:29:27;8.80;;;3.88;;
33150;SDS011;19508;42.578;23.416;2023-01-06T17:31:57;14.25;;;6.32;;